sensor_id;sensor_type;location;lat;lon;timestamp;pressure;altitude;pressure_sealevel;temperature
15626;BMP180;7912;51.376;6.126;2024-01-27T00:01:50;103112.00;;;5.80
15626;BMP180;7912;51.376;6.126;2024-01-27T00:04:17;103135.00;;;5.80
15626;BMP180;7912;51.376;6.126;2024-01-27T00:06:47;103110.00;;;5.70
15626;BMP180;7912;51.376;6.126;2024-01-27T00:09:18;103129.00;;;5.70
15626;BMP180;7912;51.376;6.126;2024-01-27T00:11:46;103126.00;;;5.70
15626;BMP180;7912;51.376;6.126;2024-01-27T00:14:15;103139.00;;;5.70
15626;BMP180;7912;51.376;6.126;2024-01-27T00:16:43;103129.00;;;5.60
15626;BMP180;7912;51.376;6.126;2024-01-27T00:19:10;103156.00;;;5.60
15626;BMP180;7912;51.376;6.126;2024-01-27T00:21:40;103144.00;;;5.60
15626;BMP180;7912;51.376;6.126;2024-01-27T00:24:07;103141.00;;;5.50
15626;BMP180;7912;51.376;6.126;2024-01-27T00:26:35;103161.00;;;5.50
15626;BMP180;7912;51.376;6.126;2024-01-27T00:29:02;103159.00;;;5.50
15626;BMP180;7912;51.376;6.126;2024-01-27T00:31:30;103151.00;;;5.40
15626;BMP180;7912;51.376;6.126;2024-01-27T00:33:57;103152.00;;;5.40
15626;BMP180;7912;51.376;6.126;2024-01-27T00:36:28;103157.00;;;5.30
15626;BMP180;7912;51.376;6.126;2024-01-27T00:38:57;103168.00;;;5.30
15626;BMP180;7912;51.376;6.126;2024-01-27T00:41:25;103155.00;;;5.30
15626;BMP180;7912;51.376;6.126;2024-01-27T00:43:52;103161.00;;;5.30
15626;BMP180;7912;51.376;6.126;2024-01-27T00:46:19;103160.00;;;5.20
15626;BMP180;7912;51.376;6.126;2024-01-27T00:48:47;103155.00;;;5.20
15626;BMP180;7912;51.376;6.126;2024-01-27T00:51:14;103160.00;;;5.20
15626;BMP180;7912;51.376;6.126;2024-01-27T00:53:42;103169.00;;;5.20
15626;BMP180;7912;51.376;6.126;2024-01-27T00:56:09;103170.00;;;5.10
15626;BMP180;7912;51.376;6.126;2024-01-27T00:58:37;103169.00;;;5.10
15626;BMP180;7912;51.376;6.126;2024-01-27T01:01:04;103171.00;;;5.10
15626;BMP180;7912;51.376;6.126;2024-01-27T01:03:31;103179.00;;;5.10
15626;BMP180;7912;51.376;6.126;2024-01-27T01:05:59;103175.00;;;5.10
15626;BMP180;7912;51.376;6.126;2024-01-27T01:08:28;103168.00;;;5.10
15626;BMP180;7912;51.376;6.126;2024-01-27T01:10:55;103170.00;;;5.10
15626;BMP180;7912;51.376;6.126;2024-01-27T01:13:22;103165.00;;;5.10
15626;BMP180;7912;51.376;6.126;2024-01-27T01:15:50;103175.00;;;5.10
15626;BMP180;7912;51.376;6.126;2024-01-27T01:18:17;103178.00;;;5.10
15626;BMP180;7912;51.376;6.126;2024-01-27T01:20:44;103164.00;;;5.00
15626;BMP180;7912;51.376;6.126;2024-01-27T01:23:12;103171.00;;;5.00
15626;BMP180;7912;51.376;6.126;2024-01-27T01:25:39;103175.00;;;5.00
15626;BMP180;7912;51.376;6.126;2024-01-27T01:28:06;103171.00;;;5.00
15626;BMP180;7912;51.376;6.126;2024-01-27T01:30:34;103172.00;;;5.00
15626;BMP180;7912;51.376;6.126;2024-01-27T01:33:01;103179.00;;;5.00
15626;BMP180;7912;51.376;6.126;2024-01-27T01:35:29;103163.00;;;5.00
15626;BMP180;7912;51.376;6.126;2024-01-27T01:37:56;103172.00;;;5.10
15626;BMP180;7912;51.376;6.126;2024-01-27T01:40:24;103174.00;;;5.10
15626;BMP180;7912;51.376;6.126;2024-01-27T01:42:51;103177.00;;;5.10
15626;BMP180;7912;51.376;6.126;2024-01-27T01:45:19;103179.00;;;5.00
15626;BMP180;7912;51.376;6.126;2024-01-27T01:47:51;103158.00;;;5.10
15626;BMP180;7912;51.376;6.126;2024-01-27T01:50:20;103182.00;;;5.10
15626;BMP180;7912;51.376;6.126;2024-01-27T01:52:49;103186.00;;;5.10
15626;BMP180;7912;51.376;6.126;2024-01-27T01:55:19;103174.00;;;5.10
15626;BMP180;7912;51.376;6.126;2024-01-27T01:57:50;103181.00;;;5.00
15626;BMP180;7912;51.376;6.126;2024-01-27T02:00:18;103180.00;;;5.10
15626;BMP180;7912;51.376;6.126;2024-01-27T02:02:46;103173.00;;;5.10
15626;BMP180;7912;51.376;6.126;2024-01-27T02:05:14;103187.00;;;5.10
15626;BMP180;7912;51.376;6.126;2024-01-27T02:07:41;103184.00;;;5.10
15626;BMP180;7912;51.376;6.126;2024-01-27T02:10:14;103195.00;;;5.10
15626;BMP180;7912;51.376;6.126;2024-01-27T02:12:44;103176.00;;;5.10
15626;BMP180;7912;51.376;6.126;2024-01-27T02:15:13;103176.00;;;5.10
15626;BMP180;7912;51.376;6.126;2024-01-27T02:17:41;103172.00;;;5.00
15626;BMP180;7912;51.376;6.126;2024-01-27T02:20:09;103167.00;;;5.10
15626;BMP180;7912;51.376;6.126;2024-01-27T02:22:40;103164.00;;;5.10
15626;BMP180;7912;51.376;6.126;2024-01-27T02:25:07;103167.00;;;5.10
15626;BMP180;7912;51.376;6.126;2024-01-27T02:27:35;103169.00;;;5.10
15626;BMP180;7912;51.376;6.126;2024-01-27T02:30:08;103164.00;;;5.10
15626;BMP180;7912;51.376;6.126;2024-01-27T02:32:39;103170.00;;;5.10
15626;BMP180;7912;51.376;6.126;2024-01-27T02:35:14;103160.00;;;5.10
15626;BMP180;7912;51.376;6.126;2024-01-27T02:37:44;103177.00;;;5.10
15626;BMP180;7912;51.376;6.126;2024-01-27T02:40:12;103159.00;;;5.10
15626;BMP180;7912;51.376;6.126;2024-01-27T02:42:39;103173.00;;;5.20
15626;BMP180;7912;51.376;6.126;2024-01-27T02:45:09;103190.00;;;5.20
15626;BMP180;7912;51.376;6.126;2024-01-27T02:47:37;103183.00;;;5.10
15626;BMP180;7912;51.376;6.126;2024-01-27T02:50:09;103187.00;;;5.20
15626;BMP180;7912;51.376;6.126;2024-01-27T02:52:39;103174.00;;;5.20
15626;BMP180;7912;51.376;6.126;2024-01-27T02:55:09;103190.00;;;5.20
15626;BMP180;7912;51.376;6.126;2024-01-27T02:57:43;103178.00;;;5.10
15626;BMP180;7912;51.376;6.126;2024-01-27T03:00:11;103176.00;;;5.10
15626;BMP180;7912;51.376;6.126;2024-01-27T03:02:38;103193.00;;;5.10
15626;BMP180;7912;51.376;6.126;2024-01-27T03:05:06;103193.00;;;5.10
15626;BMP180;7912;51.376;6.126;2024-01-27T03:07:34;103194.00;;;5.10
15626;BMP180;7912;51.376;6.126;2024-01-27T03:10:02;103189.00;;;5.10
15626;BMP180;7912;51.376;6.126;2024-01-27T03:12:30;103194.00;;;5.10
15626;BMP180;7912;51.376;6.126;2024-01-27T03:14:57;103182.00;;;5.10
15626;BMP180;7912;51.376;6.126;2024-01-27T03:17:25;103189.00;;;5.10
15626;BMP180;7912;51.376;6.126;2024-01-27T03:19:52;103186.00;;;5.10
15626;BMP180;7912;51.376;6.126;2024-01-27T03:22:20;103171.00;;;5.10
15626;BMP180;7912;51.376;6.126;2024-01-27T03:24:47;103171.00;;;5.10
15626;BMP180;7912;51.376;6.126;2024-01-27T03:27:14;103170.00;;;5.10
15626;BMP180;7912;51.376;6.126;2024-01-27T03:29:42;103170.00;;;5.00
15626;BMP180;7912;51.376;6.126;2024-01-27T03:32:09;103171.00;;;5.10
15626;BMP180;7912;51.376;6.126;2024-01-27T03:34:44;103155.00;;;5.10
15626;BMP180;7912;51.376;6.126;2024-01-27T03:37:13;103167.00;;;5.10
15626;BMP180;7912;51.376;6.126;2024-01-27T03:39:44;103182.00;;;5.10
15626;BMP180;7912;51.376;6.126;2024-01-27T03:42:11;103184.00;;;5.10
15626;BMP180;7912;51.376;6.126;2024-01-27T03:44:39;103163.00;;;5.10
15626;BMP180;7912;51.376;6.126;2024-01-27T03:47:06;103197.00;;;5.10
15626;BMP180;7912;51.376;6.126;2024-01-27T03:49:36;103201.00;;;5.10
15626;BMP180;7912;51.376;6.126;2024-01-27T03:52:05;103184.00;;;5.10
15626;BMP180;7912;51.376;6.126;2024-01-27T03:54:32;103185.00;;;5.10
15626;BMP180;7912;51.376;6.126;2024-01-27T03:57:00;103189.00;;;5.10
15626;BMP180;7912;51.376;6.126;2024-01-27T03:59:30;103198.00;;;5.10
15626;BMP180;7912;51.376;6.126;2024-01-27T04:01:57;103181.00;;;5.10
15626;BMP180;7912;51.376;6.126;2024-01-27T04:04:25;103204.00;;;5.10
15626;BMP180;7912;51.376;6.126;2024-01-27T04:06:52;103212.00;;;5.10
15626;BMP180;7912;51.376;6.126;2024-01-27T04:09:19;103203.00;;;5.10
15626;BMP180;7912;51.376;6.126;2024-01-27T04:11:51;103206.00;;;5.10
15626;BMP180;7912;51.376;6.126;2024-01-27T04:14:18;103211.00;;;5.00
15626;BMP180;7912;51.376;6.126;2024-01-27T04:16:45;103210.00;;;5.00
15626;BMP180;7912;51.376;6.126;2024-01-27T04:19:15;103221.00;;;5.00
15626;BMP180;7912;51.376;6.126;2024-01-27T04:21:42;103223.00;;;5.00
15626;BMP180;7912;51.376;6.126;2024-01-27T04:24:10;103207.00;;;5.00
15626;BMP180;7912;51.376;6.126;2024-01-27T04:26:37;103226.00;;;5.00
15626;BMP180;7912;51.376;6.126;2024-01-27T04:29:04;103221.00;;;5.00
15626;BMP180;7912;51.376;6.126;2024-01-27T04:31:32;103225.00;;;5.00
15626;BMP180;7912;51.376;6.126;2024-01-27T04:33:59;103228.00;;;4.90
15626;BMP180;7912;51.376;6.126;2024-01-27T04:36:30;103225.00;;;5.00
15626;BMP180;7912;51.376;6.126;2024-01-27T04:38:58;103224.00;;;4.90
15626;BMP180;7912;51.376;6.126;2024-01-27T04:41:25;103216.00;;;4.90
15626;BMP180;7912;51.376;6.126;2024-01-27T04:43:52;103218.00;;;4.90
15626;BMP180;7912;51.376;6.126;2024-01-27T04:46:20;103215.00;;;4.90
15626;BMP180;7912;51.376;6.126;2024-01-27T04:48:50;103199.00;;;5.00
15626;BMP180;7912;51.376;6.126;2024-01-27T04:51:18;103196.00;;;4.90
15626;BMP180;7912;51.376;6.126;2024-01-27T04:53:45;103200.00;;;4.90
15626;BMP180;7912;51.376;6.126;2024-01-27T04:56:12;103208.00;;;4.90
15626;BMP180;7912;51.376;6.126;2024-01-27T04:58:43;103203.00;;;4.90
15626;BMP180;7912;51.376;6.126;2024-01-27T05:01:10;103191.00;;;4.90
15626;BMP180;7912;51.376;6.126;2024-01-27T05:03:37;103184.00;;;4.90
15626;BMP180;7912;51.376;6.126;2024-01-27T05:06:10;103208.00;;;4.90
15626;BMP180;7912;51.376;6.126;2024-01-27T05:08:38;103199.00;;;4.90
15626;BMP180;7912;51.376;6.126;2024-01-27T05:11:07;103194.00;;;4.90
15626;BMP180;7912;51.376;6.126;2024-01-27T05:13:37;103201.00;;;4.90
15626;BMP180;7912;51.376;6.126;2024-01-27T05:16:22;103205.00;;;4.90
15626;BMP180;7912;51.376;6.126;2024-01-27T05:18:49;103206.00;;;4.90
15626;BMP180;7912;51.376;6.126;2024-01-27T05:21:17;103186.00;;;4.90
15626;BMP180;7912;51.376;6.126;2024-01-27T05:23:47;103211.00;;;4.90
15626;BMP180;7912;51.376;6.126;2024-01-27T05:26:17;103213.00;;;4.90
15626;BMP180;7912;51.376;6.126;2024-01-27T05:28:47;103189.00;;;4.90
15626;BMP180;7912;51.376;6.126;2024-01-27T05:31:15;103188.00;;;4.90
15626;BMP180;7912;51.376;6.126;2024-01-27T05:33:43;103179.00;;;4.80
15626;BMP180;7912;51.376;6.126;2024-01-27T05:36:10;103195.00;;;4.90
15626;BMP180;7912;51.376;6.126;2024-01-27T05:38:40;103195.00;;;4.90
15626;BMP180;7912;51.376;6.126;2024-01-27T05:41:10;103200.00;;;4.80
15626;BMP180;7912;51.376;6.126;2024-01-27T05:43:40;103197.00;;;4.80
15626;BMP180;7912;51.376;6.126;2024-01-27T05:46:09;103199.00;;;4.80
15626;BMP180;7912;51.376;6.126;2024-01-27T05:48:37;103200.00;;;4.80
15626;BMP180;7912;51.376;6.126;2024-01-27T05:51:07;103212.00;;;4.80
15626;BMP180;7912;51.376;6.126;2024-01-27T05:53:39;103198.00;;;4.80
15626;BMP180;7912;51.376;6.126;2024-01-27T05:56:06;103197.00;;;4.70
15626;BMP180;7912;51.376;6.126;2024-01-27T05:58:33;103206.00;;;4.70
15626;BMP180;7912;51.376;6.126;2024-01-27T06:01:10;103194.00;;;4.70
15626;BMP180;7912;51.376;6.126;2024-01-27T06:03:37;103209.00;;;4.70
15626;BMP180;7912;51.376;6.126;2024-01-27T06:06:05;103207.00;;;4.70
15626;BMP180;7912;51.376;6.126;2024-01-27T06:08:32;103218.00;;;4.70
15626;BMP180;7912;51.376;6.126;2024-01-27T06:10:59;103206.00;;;4.70
15626;BMP180;7912;51.376;6.126;2024-01-27T06:13:27;103222.00;;;4.70
15626;BMP180;7912;51.376;6.126;2024-01-27T06:15:54;103220.00;;;4.70
15626;BMP180;7912;51.376;6.126;2024-01-27T06:18:21;103220.00;;;4.70
15626;BMP180;7912;51.376;6.126;2024-01-27T06:20:55;103220.00;;;4.60
15626;BMP180;7912;51.376;6.126;2024-01-27T06:23:22;103221.00;;;4.70
15626;BMP180;7912;51.376;6.126;2024-01-27T06:25:51;103215.00;;;4.70
15626;BMP180;7912;51.376;6.126;2024-01-27T06:28:18;103212.00;;;4.60
15626;BMP180;7912;51.376;6.126;2024-01-27T06:30:46;103220.00;;;4.60
15626;BMP180;7912;51.376;6.126;2024-01-27T06:33:13;103213.00;;;4.70
15626;BMP180;7912;51.376;6.126;2024-01-27T06:35:40;103198.00;;;4.70
15626;BMP180;7912;51.376;6.126;2024-01-27T06:38:11;103213.00;;;4.70
15626;BMP180;7912;51.376;6.126;2024-01-27T06:40:38;103201.00;;;4.70
15626;BMP180;7912;51.376;6.126;2024-01-27T06:43:05;103214.00;;;4.70
15626;BMP180;7912;51.376;6.126;2024-01-27T06:45:32;103208.00;;;4.70
15626;BMP180;7912;51.376;6.126;2024-01-27T06:48:00;103228.00;;;4.60
15626;BMP180;7912;51.376;6.126;2024-01-27T06:50:28;103220.00;;;4.60
15626;BMP180;7912;51.376;6.126;2024-01-27T06:52:55;103231.00;;;4.60
15626;BMP180;7912;51.376;6.126;2024-01-27T06:55:22;103230.00;;;4.60
15626;BMP180;7912;51.376;6.126;2024-01-27T06:57:50;103222.00;;;4.60
15626;BMP180;7912;51.376;6.126;2024-01-27T07:00:18;103221.00;;;4.60
15626;BMP180;7912;51.376;6.126;2024-01-27T07:02:45;103212.00;;;4.50
15626;BMP180;7912;51.376;6.126;2024-01-27T07:05:13;103200.00;;;4.60
15626;BMP180;7912;51.376;6.126;2024-01-27T07:07:42;103216.00;;;4.50
15626;BMP180;7912;51.376;6.126;2024-01-27T07:10:09;103233.00;;;4.50
15626;BMP180;7912;51.376;6.126;2024-01-27T07:12:36;103215.00;;;4.50
15626;BMP180;7912;51.376;6.126;2024-01-27T07:15:07;103207.00;;;4.50
15626;BMP180;7912;51.376;6.126;2024-01-27T07:17:34;103225.00;;;4.50
15626;BMP180;7912;51.376;6.126;2024-01-27T07:20:01;103211.00;;;4.50
15626;BMP180;7912;51.376;6.126;2024-01-27T07:22:29;103239.00;;;4.50
15626;BMP180;7912;51.376;6.126;2024-01-27T07:24:59;103236.00;;;4.40
15626;BMP180;7912;51.376;6.126;2024-01-27T07:27:26;103242.00;;;4.50
15626;BMP180;7912;51.376;6.126;2024-01-27T07:29:58;103250.00;;;4.50
15626;BMP180;7912;51.376;6.126;2024-01-27T07:32:31;103261.00;;;4.40
15626;BMP180;7912;51.376;6.126;2024-01-27T07:34:59;103259.00;;;4.40
15626;BMP180;7912;51.376;6.126;2024-01-27T07:37:29;103257.00;;;4.40
15626;BMP180;7912;51.376;6.126;2024-01-27T07:39:56;103264.00;;;4.40
15626;BMP180;7912;51.376;6.126;2024-01-27T07:42:23;103267.00;;;4.40
15626;BMP180;7912;51.376;6.126;2024-01-27T07:44:51;103259.00;;;4.40
15626;BMP180;7912;51.376;6.126;2024-01-27T07:47:20;103243.00;;;4.40
15626;BMP180;7912;51.376;6.126;2024-01-27T07:49:47;103251.00;;;4.40
15626;BMP180;7912;51.376;6.126;2024-01-27T07:52:16;103256.00;;;4.40
15626;BMP180;7912;51.376;6.126;2024-01-27T07:54:43;103264.00;;;4.40
15626;BMP180;7912;51.376;6.126;2024-01-27T07:57:13;103262.00;;;4.40
15626;BMP180;7912;51.376;6.126;2024-01-27T07:59:40;103257.00;;;4.40
15626;BMP180;7912;51.376;6.126;2024-01-27T08:02:08;103270.00;;;4.50
15626;BMP180;7912;51.376;6.126;2024-01-27T08:04:35;103274.00;;;4.40
15626;BMP180;7912;51.376;6.126;2024-01-27T08:07:07;103303.00;;;4.50
15626;BMP180;7912;51.376;6.126;2024-01-27T08:09:37;103291.00;;;4.50
15626;BMP180;7912;51.376;6.126;2024-01-27T08:12:07;103297.00;;;4.50
15626;BMP180;7912;51.376;6.126;2024-01-27T08:14:35;103300.00;;;4.50
15626;BMP180;7912;51.376;6.126;2024-01-27T08:17:04;103295.00;;;4.50
15626;BMP180;7912;51.376;6.126;2024-01-27T08:19:32;103281.00;;;4.50
15626;BMP180;7912;51.376;6.126;2024-01-27T08:22:05;103284.00;;;4.50
15626;BMP180;7912;51.376;6.126;2024-01-27T08:24:33;103292.00;;;4.60
15626;BMP180;7912;51.376;6.126;2024-01-27T08:27:00;103280.00;;;4.50
15626;BMP180;7912;51.376;6.126;2024-01-27T08:29:28;103298.00;;;4.60
15626;BMP180;7912;51.376;6.126;2024-01-27T08:32:00;103300.00;;;4.60
15626;BMP180;7912;51.376;6.126;2024-01-27T08:34:29;103293.00;;;4.70
15626;BMP180;7912;51.376;6.126;2024-01-27T08:37:01;103286.00;;;4.70
15626;BMP180;7912;51.376;6.126;2024-01-27T08:39:29;103271.00;;;4.70
15626;BMP180;7912;51.376;6.126;2024-01-27T08:41:57;103280.00;;;4.80
15626;BMP180;7912;51.376;6.126;2024-01-27T08:44:25;103303.00;;;4.80
15626;BMP180;7912;51.376;6.126;2024-01-27T08:46:52;103293.00;;;4.90
15626;BMP180;7912;51.376;6.126;2024-01-27T08:49:20;103291.00;;;4.90
15626;BMP180;7912;51.376;6.126;2024-01-27T08:51:47;103276.00;;;4.90
15626;BMP180;7912;51.376;6.126;2024-01-27T08:54:17;103265.00;;;5.00
15626;BMP180;7912;51.376;6.126;2024-01-27T08:56:47;103275.00;;;5.00
15626;BMP180;7912;51.376;6.126;2024-01-27T08:59:14;103278.00;;;5.00
15626;BMP180;7912;51.376;6.126;2024-01-27T09:01:42;103277.00;;;5.10
15626;BMP180;7912;51.376;6.126;2024-01-27T09:04:09;103277.00;;;5.10
15626;BMP180;7912;51.376;6.126;2024-01-27T09:06:37;103255.00;;;5.20
15626;BMP180;7912;51.376;6.126;2024-01-27T09:09:04;103266.00;;;5.30
15626;BMP180;7912;51.376;6.126;2024-01-27T09:11:31;103265.00;;;5.30
15626;BMP180;7912;51.376;6.126;2024-01-27T09:14:01;103261.00;;;5.40
15626;BMP180;7912;51.376;6.126;2024-01-27T09:16:28;103278.00;;;5.50
15626;BMP180;7912;51.376;6.126;2024-01-27T09:18:58;103275.00;;;5.50
15626;BMP180;7912;51.376;6.126;2024-01-27T09:21:32;103274.00;;;5.60
15626;BMP180;7912;51.376;6.126;2024-01-27T09:24:00;103286.00;;;5.70
15626;BMP180;7912;51.376;6.126;2024-01-27T09:26:49;103274.00;;;5.70
15626;BMP180;7912;51.376;6.126;2024-01-27T09:29:16;103272.00;;;5.70
15626;BMP180;7912;51.376;6.126;2024-01-27T09:31:46;103273.00;;;5.70
15626;BMP180;7912;51.376;6.126;2024-01-27T09:34:13;103266.00;;;5.80
15626;BMP180;7912;51.376;6.126;2024-01-27T09:36:41;103282.00;;;5.80
15626;BMP180;7912;51.376;6.126;2024-01-27T09:39:08;103264.00;;;5.80
15626;BMP180;7912;51.376;6.126;2024-01-27T09:41:42;103289.00;;;5.80
15626;BMP180;7912;51.376;6.126;2024-01-27T09:44:12;103288.00;;;5.90
15626;BMP180;7912;51.376;6.126;2024-01-27T09:46:40;103283.00;;;5.90
15626;BMP180;7912;51.376;6.126;2024-01-27T09:49:12;103295.00;;;6.00
15626;BMP180;7912;51.376;6.126;2024-01-27T09:51:43;103304.00;;;6.10
15626;BMP180;7912;51.376;6.126;2024-01-27T09:54:11;103293.00;;;6.10
15626;BMP180;7912;51.376;6.126;2024-01-27T09:56:40;103305.00;;;6.10
15626;BMP180;7912;51.376;6.126;2024-01-27T09:59:12;103314.00;;;6.20
15626;BMP180;7912;51.376;6.126;2024-01-27T10:01:41;103309.00;;;6.30
15626;BMP180;7912;51.376;6.126;2024-01-27T10:04:11;103325.00;;;6.40
15626;BMP180;7912;51.376;6.126;2024-01-27T10:06:43;103311.00;;;6.40
15626;BMP180;7912;51.376;6.126;2024-01-27T10:09:10;103314.00;;;6.50
15626;BMP180;7912;51.376;6.126;2024-01-27T10:11:43;103310.00;;;6.50
15626;BMP180;7912;51.376;6.126;2024-01-27T10:14:12;103303.00;;;6.60
15626;BMP180;7912;51.376;6.126;2024-01-27T10:16:44;103297.00;;;6.70
15626;BMP180;7912;51.376;6.126;2024-01-27T10:19:19;103302.00;;;6.80
15626;BMP180;7912;51.376;6.126;2024-01-27T10:22:00;103318.00;;;6.90
15626;BMP180;7912;51.376;6.126;2024-01-27T10:24:29;103312.00;;;7.00
15626;BMP180;7912;51.376;6.126;2024-01-27T10:27:03;103310.00;;;7.00
15626;BMP180;7912;51.376;6.126;2024-01-27T10:29:31;103306.00;;;7.10
15626;BMP180;7912;51.376;6.126;2024-01-27T10:32:11;103309.00;;;7.20
15626;BMP180;7912;51.376;6.126;2024-01-27T10:34:38;103309.00;;;7.30
15626;BMP180;7912;51.376;6.126;2024-01-27T10:37:06;103309.00;;;7.40
15626;BMP180;7912;51.376;6.126;2024-01-27T10:39:33;103301.00;;;7.50
15626;BMP180;7912;51.376;6.126;2024-01-27T10:42:02;103307.00;;;7.50
15626;BMP180;7912;51.376;6.126;2024-01-27T10:44:32;103298.00;;;7.70
15626;BMP180;7912;51.376;6.126;2024-01-27T10:47:04;103286.00;;;8.00
15626;BMP180;7912;51.376;6.126;2024-01-27T10:49:35;103291.00;;;8.30
15626;BMP180;7912;51.376;6.126;2024-01-27T10:52:43;103287.00;;;8.80
15626;BMP180;7912;51.376;6.126;2024-01-27T10:55:13;103282.00;;;9.10
15626;BMP180;7912;51.376;6.126;2024-01-27T10:57:42;103279.00;;;9.50
15626;BMP180;7912;51.376;6.126;2024-01-27T11:00:14;103274.00;;;9.90
15626;BMP180;7912;51.376;6.126;2024-01-27T11:02:44;103274.00;;;10.30
15626;BMP180;7912;51.376;6.126;2024-01-27T11:05:15;103260.00;;;10.50
15626;BMP180;7912;51.376;6.126;2024-01-27T11:07:46;103272.00;;;10.70
15626;BMP180;7912;51.376;6.126;2024-01-27T11:10:18;103269.00;;;11.00
15626;BMP180;7912;51.376;6.126;2024-01-27T11:12:47;103269.00;;;11.10
15626;BMP180;7912;51.376;6.126;2024-01-27T11:15:18;103274.00;;;11.20
15626;BMP180;7912;51.376;6.126;2024-01-27T11:17:57;103285.00;;;11.30
15626;BMP180;7912;51.376;6.126;2024-01-27T11:20:31;103274.00;;;11.40
15626;BMP180;7912;51.376;6.126;2024-01-27T11:23:13;103273.00;;;11.60
15626;BMP180;7912;51.376;6.126;2024-01-27T11:25:47;103286.00;;;11.70
15626;BMP180;7912;51.376;6.126;2024-01-27T11:28:16;103269.00;;;11.80
15626;BMP180;7912;51.376;6.126;2024-01-27T11:30:47;103276.00;;;11.80
15626;BMP180;7912;51.376;6.126;2024-01-27T11:33:15;103277.00;;;11.90
15626;BMP180;7912;51.376;6.126;2024-01-27T11:35:43;103265.00;;;12.00
15626;BMP180;7912;51.376;6.126;2024-01-27T11:38:10;103269.00;;;12.00
15626;BMP180;7912;51.376;6.126;2024-01-27T11:40:47;103262.00;;;12.10
15626;BMP180;7912;51.376;6.126;2024-01-27T11:43:17;103268.00;;;12.10
15626;BMP180;7912;51.376;6.126;2024-01-27T11:45:58;103259.00;;;12.20
15626;BMP180;7912;51.376;6.126;2024-01-27T11:48:27;103263.00;;;12.40
15626;BMP180;7912;51.376;6.126;2024-01-27T11:51:10;103256.00;;;12.60
15626;BMP180;7912;51.376;6.126;2024-01-27T11:53:38;103246.00;;;12.70
15626;BMP180;7912;51.376;6.126;2024-01-27T11:56:07;103251.00;;;12.80
15626;BMP180;7912;51.376;6.126;2024-01-27T11:58:34;103247.00;;;12.90
15626;BMP180;7912;51.376;6.126;2024-01-27T12:01:02;103250.00;;;13.00
15626;BMP180;7912;51.376;6.126;2024-01-27T12:03:30;103252.00;;;13.00
15626;BMP180;7912;51.376;6.126;2024-01-27T12:05:57;103261.00;;;13.00
15626;BMP180;7912;51.376;6.126;2024-01-27T12:08:30;103248.00;;;12.90
15626;BMP180;7912;51.376;6.126;2024-01-27T12:11:03;103251.00;;;12.80
15626;BMP180;7912;51.376;6.126;2024-01-27T12:13:34;103256.00;;;12.80
15626;BMP180;7912;51.376;6.126;2024-01-27T12:16:01;103250.00;;;12.80
15626;BMP180;7912;51.376;6.126;2024-01-27T12:18:29;103249.00;;;12.70
15626;BMP180;7912;51.376;6.126;2024-01-27T12:20:57;103252.00;;;12.70
15626;BMP180;7912;51.376;6.126;2024-01-27T12:23:25;103255.00;;;12.70
15626;BMP180;7912;51.376;6.126;2024-01-27T12:25:56;103252.00;;;12.70
15626;BMP180;7912;51.376;6.126;2024-01-27T12:28:24;103242.00;;;12.80
15626;BMP180;7912;51.376;6.126;2024-01-27T12:30:53;103239.00;;;12.80
15626;BMP180;7912;51.376;6.126;2024-01-27T12:33:20;103245.00;;;12.90
15626;BMP180;7912;51.376;6.126;2024-01-27T12:35:55;103245.00;;;12.90
15626;BMP180;7912;51.376;6.126;2024-01-27T12:38:23;103240.00;;;12.90
15626;BMP180;7912;51.376;6.126;2024-01-27T12:40:56;103238.00;;;13.00
15626;BMP180;7912;51.376;6.126;2024-01-27T12:43:27;103240.00;;;13.00
15626;BMP180;7912;51.376;6.126;2024-01-27T12:45:55;103229.00;;;13.00
15626;BMP180;7912;51.376;6.126;2024-01-27T12:48:22;103237.00;;;13.00
15626;BMP180;7912;51.376;6.126;2024-01-27T12:50:53;103237.00;;;13.10
15626;BMP180;7912;51.376;6.126;2024-01-27T12:53:28;103226.00;;;13.20
15626;BMP180;7912;51.376;6.126;2024-01-27T12:55:56;103234.00;;;13.30
15626;BMP180;7912;51.376;6.126;2024-01-27T12:58:26;103232.00;;;13.30
15626;BMP180;7912;51.376;6.126;2024-01-27T13:00:57;103222.00;;;13.40
15626;BMP180;7912;51.376;6.126;2024-01-27T13:03:25;103237.00;;;13.40
15626;BMP180;7912;51.376;6.126;2024-01-27T13:05:55;103231.00;;;13.40
15626;BMP180;7912;51.376;6.126;2024-01-27T13:08:23;103222.00;;;13.40
15626;BMP180;7912;51.376;6.126;2024-01-27T13:10:52;103226.00;;;13.40
15626;BMP180;7912;51.376;6.126;2024-01-27T13:13:19;103216.00;;;13.40
15626;BMP180;7912;51.376;6.126;2024-01-27T13:15:47;103228.00;;;13.40
15626;BMP180;7912;51.376;6.126;2024-01-27T13:18:14;103214.00;;;13.40
15626;BMP180;7912;51.376;6.126;2024-01-27T13:20:42;103213.00;;;13.40
15626;BMP180;7912;51.376;6.126;2024-01-27T13:23:10;103211.00;;;13.50
15626;BMP180;7912;51.376;6.126;2024-01-27T13:25:37;103217.00;;;13.60
15626;BMP180;7912;51.376;6.126;2024-01-27T13:28:04;103207.00;;;13.80
15626;BMP180;7912;51.376;6.126;2024-01-27T13:30:34;103198.00;;;14.00
15626;BMP180;7912;51.376;6.126;2024-01-27T13:33:04;103205.00;;;14.30
15626;BMP180;7912;51.376;6.126;2024-01-27T13:35:32;103197.00;;;14.60
15626;BMP180;7912;51.376;6.126;2024-01-27T13:37:59;103196.00;;;14.90
15626;BMP180;7912;51.376;6.126;2024-01-27T13:40:27;103198.00;;;15.40
15626;BMP180;7912;51.376;6.126;2024-01-27T13:42:54;103199.00;;;15.70
15626;BMP180;7912;51.376;6.126;2024-01-27T13:45:22;103192.00;;;16.00
15626;BMP180;7912;51.376;6.126;2024-01-27T13:48:13;103204.00;;;16.20
15626;BMP180;7912;51.376;6.126;2024-01-27T13:50:41;103187.00;;;16.30
15626;BMP180;7912;51.376;6.126;2024-01-27T13:53:09;103199.00;;;16.50
15626;BMP180;7912;51.376;6.126;2024-01-27T13:55:40;103182.00;;;16.90
15626;BMP180;7912;51.376;6.126;2024-01-27T13:58:10;103174.00;;;17.10
15626;BMP180;7912;51.376;6.126;2024-01-27T14:00:37;103179.00;;;17.40
15626;BMP180;7912;51.376;6.126;2024-01-27T14:03:05;103167.00;;;17.70
15626;BMP180;7912;51.376;6.126;2024-01-27T14:05:36;103163.00;;;17.80
15626;BMP180;7912;51.376;6.126;2024-01-27T14:08:06;103165.00;;;17.80
15626;BMP180;7912;51.376;6.126;2024-01-27T14:10:34;103163.00;;;17.70
15626;BMP180;7912;51.376;6.126;2024-01-27T14:13:02;103163.00;;;17.60
15626;BMP180;7912;51.376;6.126;2024-01-27T14:15:31;103161.00;;;17.60
15626;BMP180;7912;51.376;6.126;2024-01-27T14:17:59;103164.00;;;17.50
15626;BMP180;7912;51.376;6.126;2024-01-27T14:20:26;103162.00;;;17.60
15626;BMP180;7912;51.376;6.126;2024-01-27T14:22:56;103167.00;;;17.60
15626;BMP180;7912;51.376;6.126;2024-01-27T14:25:25;103169.00;;;17.60
15626;BMP180;7912;51.376;6.126;2024-01-27T14:27:52;103185.00;;;17.50
15626;BMP180;7912;51.376;6.126;2024-01-27T14:30:20;103183.00;;;17.50